sensor_id;sensor_type;location;lat;lon;timestamp;temperature;humidity
45137;DHT22;30894;51.740;19.498;2022-07-22T00:00:39;20.50;62.80
45137;DHT22;30894;51.740;19.498;2022-07-22T00:03:05;20.40;63.00
45137;DHT22;30894;51.740;19.498;2022-07-22T00:05:31;20.30;63.20
45137;DHT22;30894;51.740;19.498;2022-07-22T00:07:57;20.20;63.40
45137;DHT22;30894;51.740;19.498;2022-07-22T00:10:23;20.20;63.60
45137;DHT22;30894;51.740;19.498;2022-07-22T00:12:49;20.10;63.60
45137;DHT22;30894;51.740;19.498;2022-07-22T00:15:15;20.10;63.70
45137;DHT22;30894;51.740;19.498;2022-07-22T00:17:41;20.00;63.80
45137;DHT22;30894;51.740;19.498;2022-07-22T00:20:07;19.90;63.90
45137;DHT22;30894;51.740;19.498;2022-07-22T00:22:34;19.80;64.10
45137;DHT22;30894;51.740;19.498;2022-07-22T00:25:00;19.70;64.30
45137;DHT22;30894;51.740;19.498;2022-07-22T00:27:26;19.60;64.50
45137;DHT22;30894;51.740;19.498;2022-07-22T00:29:52;19.50;64.70
45137;DHT22;30894;51.740;19.498;2022-07-22T00:32:18;19.40;64.80
45137;DHT22;30894;51.740;19.498;2022-07-22T00:34:44;19.30;65.00
45137;DHT22;30894;51.740;19.498;2022-07-22T00:37:10;19.20;65.20
45137;DHT22;30894;51.740;19.498;2022-07-22T00:39:36;19.00;65.40
45137;DHT22;30894;51.740;19.498;2022-07-22T00:42:03;18.90;65.70
45137;DHT22;30894;51.740;19.498;2022-07-22T00:44:29;18.80;65.90
45137;DHT22;30894;51.740;19.498;2022-07-22T00:46:55;18.70;66.00
45137;DHT22;30894;51.740;19.498;2022-07-22T00:49:21;18.60;66.20
45137;DHT22;30894;51.740;19.498;2022-07-22T00:51:47;18.50;66.30
45137;DHT22;30894;51.740;19.498;2022-07-22T00:54:13;18.40;66.50
45137;DHT22;30894;51.740;19.498;2022-07-22T00:56:40;18.30;66.60
45137;DHT22;30894;51.740;19.498;2022-07-22T00:59:12;18.30;66.80
45137;DHT22;30894;51.740;19.498;2022-07-22T01:01:39;18.20;66.90
45137;DHT22;30894;51.740;19.498;2022-07-22T01:04:05;18.10;67.00
45137;DHT22;30894;51.740;19.498;2022-07-22T01:06:31;18.00;67.10
45137;DHT22;30894;51.740;19.498;2022-07-22T01:08:58;17.90;67.30
45137;DHT22;30894;51.740;19.498;2022-07-22T01:11:25;17.90;67.40
45137;DHT22;30894;51.740;19.498;2022-07-22T01:13:52;17.90;67.40
45137;DHT22;30894;51.740;19.498;2022-07-22T01:16:19;17.90;67.40
45137;DHT22;30894;51.740;19.498;2022-07-22T01:18:46;17.80;67.40
45137;DHT22;30894;51.740;19.498;2022-07-22T01:21:13;17.80;67.60
45137;DHT22;30894;51.740;19.498;2022-07-22T01:23:40;17.80;67.50
45137;DHT22;30894;51.740;19.498;2022-07-22T01:26:06;17.90;67.40
45137;DHT22;30894;51.740;19.498;2022-07-22T01:28:32;17.90;67.40
45137;DHT22;30894;51.740;19.498;2022-07-22T01:30:59;17.90;67.40
45137;DHT22;30894;51.740;19.498;2022-07-22T01:33:25;17.80;67.50
45137;DHT22;30894;51.740;19.498;2022-07-22T01:35:52;17.80;67.60
45137;DHT22;30894;51.740;19.498;2022-07-22T01:38:18;17.70;67.60
45137;DHT22;30894;51.740;19.498;2022-07-22T01:40:45;17.60;68.40
45137;DHT22;30894;51.740;19.498;2022-07-22T01:43:12;17.50;68.00
45137;DHT22;30894;51.740;19.498;2022-07-22T01:45:41;17.40;68.20
45137;DHT22;30894;51.740;19.498;2022-07-22T01:48:07;17.30;68.30
45137;DHT22;30894;51.740;19.498;2022-07-22T01:50:33;17.20;68.40
45137;DHT22;30894;51.740;19.498;2022-07-22T01:52:59;17.10;68.70
45137;DHT22;30894;51.740;19.498;2022-07-22T01:55:25;17.00;68.90
45137;DHT22;30894;51.740;19.498;2022-07-22T01:57:51;16.90;68.90
45137;DHT22;30894;51.740;19.498;2022-07-22T02:00:17;16.90;69.10
45137;DHT22;30894;51.740;19.498;2022-07-22T02:02:45;16.90;69.20
45137;DHT22;30894;51.740;19.498;2022-07-22T02:05:11;16.80;69.30
45137;DHT22;30894;51.740;19.498;2022-07-22T02:07:38;16.70;70.10
45137;DHT22;30894;51.740;19.498;2022-07-22T02:10:05;16.80;69.60
45137;DHT22;30894;51.740;19.498;2022-07-22T02:12:31;16.70;69.60
45137;DHT22;30894;51.740;19.498;2022-07-22T02:14:57;16.60;69.60
45137;DHT22;30894;51.740;19.498;2022-07-22T02:17:25;16.50;69.80
45137;DHT22;30894;51.740;19.498;2022-07-22T02:19:51;16.50;69.80
45137;DHT22;30894;51.740;19.498;2022-07-22T02:22:18;16.50;69.90
45137;DHT22;30894;51.740;19.498;2022-07-22T02:24:43;16.50;69.90
45137;DHT22;30894;51.740;19.498;2022-07-22T02:27:09;16.50;69.90
45137;DHT22;30894;51.740;19.498;2022-07-22T02:29:37;16.50;69.80
45137;DHT22;30894;51.740;19.498;2022-07-22T02:32:03;16.50;69.80
45137;DHT22;30894;51.740;19.498;2022-07-22T02:34:29;16.40;69.80
45137;DHT22;30894;51.740;19.498;2022-07-22T02:36:55;16.40;69.90
45137;DHT22;30894;51.740;19.498;2022-07-22T02:39:21;16.40;70.10
45137;DHT22;30894;51.740;19.498;2022-07-22T02:41:47;16.30;70.20
45137;DHT22;30894;51.740;19.498;2022-07-22T02:44:13;16.20;70.10
45137;DHT22;30894;51.740;19.498;2022-07-22T02:46:39;16.20;70.30
45137;DHT22;30894;51.740;19.498;2022-07-22T02:49:05;16.10;70.50
45137;DHT22;30894;51.740;19.498;2022-07-22T02:51:31;16.00;70.70
45137;DHT22;30894;51.740;19.498;2022-07-22T02:53:57;16.00;70.80
45137;DHT22;30894;51.740;19.498;2022-07-22T02:56:23;16.00;70.80
45137;DHT22;30894;51.740;19.498;2022-07-22T02:58:49;16.00;70.80
45137;DHT22;30894;51.740;19.498;2022-07-22T03:01:18;16.00;70.80
45137;DHT22;30894;51.740;19.498;2022-07-22T03:03:45;16.00;70.80
45137;DHT22;30894;51.740;19.498;2022-07-22T03:06:11;16.00;70.70
45137;DHT22;30894;51.740;19.498;2022-07-22T03:08:38;16.10;70.70
45137;DHT22;30894;51.740;19.498;2022-07-22T03:11:04;16.10;70.60
45137;DHT22;30894;51.740;19.498;2022-07-22T03:13:31;16.10;70.60
45137;DHT22;30894;51.740;19.498;2022-07-22T03:15:57;16.10;71.30
45137;DHT22;30894;51.740;19.498;2022-07-22T03:18:23;16.10;70.60
45137;DHT22;30894;51.740;19.498;2022-07-22T03:20:49;16.10;70.60
45137;DHT22;30894;51.740;19.498;2022-07-22T03:23:15;16.10;70.60
45137;DHT22;30894;51.740;19.498;2022-07-22T03:25:41;16.20;70.70
45137;DHT22;30894;51.740;19.498;2022-07-22T03:28:07;16.20;70.60
45137;DHT22;30894;51.740;19.498;2022-07-22T03:30:33;16.20;70.50
45137;DHT22;30894;51.740;19.498;2022-07-22T03:32:59;16.30;70.50
45137;DHT22;30894;51.740;19.498;2022-07-22T03:35:25;16.30;70.50
45137;DHT22;30894;51.740;19.498;2022-07-22T03:37:51;16.30;70.30
45137;DHT22;30894;51.740;19.498;2022-07-22T03:40:17;16.40;70.30
45137;DHT22;30894;51.740;19.498;2022-07-22T03:42:43;16.50;70.30
45137;DHT22;30894;51.740;19.498;2022-07-22T03:45:15;16.60;70.40
45137;DHT22;30894;51.740;19.498;2022-07-22T03:47:41;16.70;70.30
45137;DHT22;30894;51.740;19.498;2022-07-22T03:50:08;16.80;70.20
45137;DHT22;30894;51.740;19.498;2022-07-22T03:52:34;16.90;70.10
45137;DHT22;30894;51.740;19.498;2022-07-22T03:55:00;16.90;70.00
45137;DHT22;30894;51.740;19.498;2022-07-22T03:57:26;17.00;70.00
45137;DHT22;30894;51.740;19.498;2022-07-22T03:59:54;17.10;69.90
45137;DHT22;30894;51.740;19.498;2022-07-22T04:02:20;17.20;69.90
45137;DHT22;30894;51.740;19.498;2022-07-22T04:04:46;17.20;69.80
45137;DHT22;30894;51.740;19.498;2022-07-22T04:07:12;17.30;69.80
45137;DHT22;30894;51.740;19.498;2022-07-22T04:09:38;17.40;69.80
45137;DHT22;30894;51.740;19.498;2022-07-22T04:12:04;17.50;69.70
45137;DHT22;30894;51.740;19.498;2022-07-22T04:14:30;17.50;69.50
45137;DHT22;30894;51.740;19.498;2022-07-22T04:16:56;17.60;69.50
45137;DHT22;30894;51.740;19.498;2022-07-22T04:19:22;17.70;69.40
45137;DHT22;30894;51.740;19.498;2022-07-22T04:21:49;17.90;69.30
45137;DHT22;30894;51.740;19.498;2022-07-22T04:24:14;18.00;69.10
45137;DHT22;30894;51.740;19.498;2022-07-22T04:26:41;18.20;69.00
45137;DHT22;30894;51.740;19.498;2022-07-22T04:29:06;18.40;68.80
45137;DHT22;30894;51.740;19.498;2022-07-22T04:31:32;18.70;68.30
45137;DHT22;30894;51.740;19.498;2022-07-22T04:33:59;19.00;67.80
45137;DHT22;30894;51.740;19.498;2022-07-22T04:36:25;19.40;67.40
45137;DHT22;30894;51.740;19.498;2022-07-22T04:38:52;19.80;66.90
45137;DHT22;30894;51.740;19.498;2022-07-22T04:41:18;20.30;66.30
45137;DHT22;30894;51.740;19.498;2022-07-22T04:43:44;20.70;65.70
45137;DHT22;30894;51.740;19.498;2022-07-22T04:46:10;21.10;65.10
45137;DHT22;30894;51.740;19.498;2022-07-22T04:48:36;21.50;64.70
45137;DHT22;30894;51.740;19.498;2022-07-22T04:51:03;21.90;64.40
45137;DHT22;30894;51.740;19.498;2022-07-22T04:53:29;22.20;64.10
45137;DHT22;30894;51.740;19.498;2022-07-22T04:55:55;22.50;63.70
45137;DHT22;30894;51.740;19.498;2022-07-22T04:58:21;22.80;63.60
45137;DHT22;30894;51.740;19.498;2022-07-22T05:00:47;23.10;63.60
45137;DHT22;30894;51.740;19.498;2022-07-22T05:03:13;23.30;63.50
45137;DHT22;30894;51.740;19.498;2022-07-22T05:05:39;23.50;63.50
45137;DHT22;30894;51.740;19.498;2022-07-22T05:08:05;23.70;63.40
45137;DHT22;30894;51.740;19.498;2022-07-22T05:10:32;23.90;63.50
45137;DHT22;30894;51.740;19.498;2022-07-22T05:12:58;24.00;63.60
45137;DHT22;30894;51.740;19.498;2022-07-22T05:15:24;24.20;63.70
45137;DHT22;30894;51.740;19.498;2022-07-22T05:17:51;24.40;63.60
45137;DHT22;30894;51.740;19.498;2022-07-22T05:20:17;24.70;63.50
45137;DHT22;30894;51.740;19.498;2022-07-22T05:22:43;24.80;63.30
45137;DHT22;30894;51.740;19.498;2022-07-22T05:25:09;25.10;63.30
45137;DHT22;30894;51.740;19.498;2022-07-22T05:27:35;25.40;63.20
45137;DHT22;30894;51.740;19.498;2022-07-22T05:30:01;25.70;63.00
45137;DHT22;30894;51.740;19.498;2022-07-22T05:32:28;26.00;62.70
45137;DHT22;30894;51.740;19.498;2022-07-22T05:34:54;26.40;62.40
45137;DHT22;30894;51.740;19.498;2022-07-22T05:37:20;26.70;62.10
45137;DHT22;30894;51.740;19.498;2022-07-22T05:39:46;27.10;61.80
45137;DHT22;30894;51.740;19.498;2022-07-22T05:42:12;27.40;61.60
45137;DHT22;30894;51.740;19.498;2022-07-22T05:44:38;27.50;61.40
45137;DHT22;30894;51.740;19.498;2022-07-22T05:47:04;27.90;61.20
45137;DHT22;30894;51.740;19.498;2022-07-22T05:49:30;28.20;60.90
45137;DHT22;30894;51.740;19.498;2022-07-22T05:51:57;28.50;60.80
45137;DHT22;30894;51.740;19.498;2022-07-22T05:54:26;28.60;60.80
45137;DHT22;30894;51.740;19.498;2022-07-22T05:56:53;28.70;60.80
45137;DHT22;30894;51.740;19.498;2022-07-22T05:59:19;28.70;60.90
45137;DHT22;30894;51.740;19.498;2022-07-22T06:01:45;28.60;61.70
45137;DHT22;30894;51.740;19.498;2022-07-22T06:04:11;28.70;61.30
45137;DHT22;30894;51.740;19.498;2022-07-22T06:06:36;29.00;61.10
45137;DHT22;30894;51.740;19.498;2022-07-22T06:09:03;29.60;60.80
45137;DHT22;30894;51.740;19.498;2022-07-22T06:11:29;30.20;60.10
45137;DHT22;30894;51.740;19.498;2022-07-22T06:13:54;31.10;59.40
45137;DHT22;30894;51.740;19.498;2022-07-22T06:16:21;31.80;58.60
45137;DHT22;30894;51.740;19.498;2022-07-22T06:18:46;32.40;58.00
45137;DHT22;30894;51.740;19.498;2022-07-22T06:21:12;32.70;57.60
45137;DHT22;30894;51.740;19.498;2022-07-22T06:23:39;33.10;57.40
45137;DHT22;30894;51.740;19.498;2022-07-22T06:26:04;33.40;57.80
45137;DHT22;30894;51.740;19.498;2022-07-22T06:28:31;33.60;57.10
45137;DHT22;30894;51.740;19.498;2022-07-22T06:30:57;33.80;57.00
45137;DHT22;30894;51.740;19.498;2022-07-22T06:33:23;33.60;57.10
45137;DHT22;30894;51.740;19.498;2022-07-22T06:35:49;33.60;57.30
45137;DHT22;30894;51.740;19.498;2022-07-22T06:38:15;33.50;57.40
45137;DHT22;30894;51.740;19.498;2022-07-22T06:40:41;33.30;57.70
45137;DHT22;30894;51.740;19.498;2022-07-22T06:43:07;33.10;58.10
45137;DHT22;30894;51.740;19.498;2022-07-22T06:45:33;32.80;58.40
45137;DHT22;30894;51.740;19.498;2022-07-22T06:47:59;32.60;58.80
45137;DHT22;30894;51.740;19.498;2022-07-22T06:50:25;32.40;59.20
45137;DHT22;30894;51.740;19.498;2022-07-22T06:52:51;32.30;59.40
45137;DHT22;30894;51.740;19.498;2022-07-22T06:55:18;32.50;59.30
45137;DHT22;30894;51.740;19.498;2022-07-22T06:57:44;32.60;59.30
45137;DHT22;30894;51.740;19.498;2022-07-22T07:00:10;32.60;59.30
45137;DHT22;30894;51.740;19.498;2022-07-22T07:02:36;33.10;59.00
45137;DHT22;30894;51.740;19.498;2022-07-22T07:05:02;33.80;58.40
45137;DHT22;30894;51.740;19.498;2022-07-22T07:07:29;34.60;57.50
45137;DHT22;30894;51.740;19.498;2022-07-22T07:09:55;35.40;56.80
45137;DHT22;30894;51.740;19.498;2022-07-22T07:12:21;36.00;56.10
45137;DHT22;30894;51.740;19.498;2022-07-22T07:14:47;36.70;55.60
45137;DHT22;30894;51.740;19.498;2022-07-22T07:17:13;37.10;55.20
45137;DHT22;30894;51.740;19.498;2022-07-22T07:19:41;37.20;55.00
45137;DHT22;30894;51.740;19.498;2022-07-22T07:22:07;37.00;55.20
45137;DHT22;30894;51.740;19.498;2022-07-22T07:24:33;37.10;55.20
45137;DHT22;30894;51.740;19.498;2022-07-22T07:26:59;37.50;55.00
45137;DHT22;30894;51.740;19.498;2022-07-22T07:29:25;37.60;54.90
45137;DHT22;30894;51.740;19.498;2022-07-22T07:31:51;37.90;54.90
45137;DHT22;30894;51.740;19.498;2022-07-22T07:34:17;38.20;54.70
45137;DHT22;30894;51.740;19.498;2022-07-22T07:36:43;38.80;54.30
45137;DHT22;30894;51.740;19.498;2022-07-22T07:39:09;39.50;53.70
45137;DHT22;30894;51.740;19.498;2022-07-22T07:41:35;40.00;53.30
45137;DHT22;30894;51.740;19.498;2022-07-22T07:44:01;40.40;52.90
45137;DHT22;30894;51.740;19.498;2022-07-22T07:46:28;40.50;52.80
45137;DHT22;30894;51.740;19.498;2022-07-22T07:48:55;40.60;52.60
45137;DHT22;30894;51.740;19.498;2022-07-22T07:51:21;40.70;53.30
45137;DHT22;30894;51.740;19.498;2022-07-22T07:53:47;41.10;52.50
45137;DHT22;30894;51.740;19.498;2022-07-22T07:56:13;40.90;52.60
45137;DHT22;30894;51.740;19.498;2022-07-22T07:58:39;40.50;52.80
45137;DHT22;30894;51.740;19.498;2022-07-22T08:01:05;40.30;53.20
45137;DHT22;30894;51.740;19.498;2022-07-22T08:03:31;40.20;53.30
45137;DHT22;30894;51.740;19.498;2022-07-22T08:05:57;40.50;53.30
45137;DHT22;30894;51.740;19.498;2022-07-22T08:08:25;40.60;53.10
45137;DHT22;30894;51.740;19.498;2022-07-22T08:10:52;40.50;53.10
45137;DHT22;30894;51.740;19.498;2022-07-22T08:13:18;40.40;53.30
45137;DHT22;30894;51.740;19.498;2022-07-22T08:15:44;40.20;53.40
45137;DHT22;30894;51.740;19.498;2022-07-22T08:18:11;40.40;53.40
45137;DHT22;30894;51.740;19.498;2022-07-22T08:20:37;41.10;52.90
45137;DHT22;30894;51.740;19.498;2022-07-22T08:23:03;41.50;52.50
45137;DHT22;30894;51.740;19.498;2022-07-22T08:25:28;41.50;52.40
45137;DHT22;30894;51.740;19.498;2022-07-22T08:27:55;42.10;52.30
45137;DHT22;30894;51.740;19.498;2022-07-22T08:30:21;43.00;51.70
45137;DHT22;30894;51.740;19.498;2022-07-22T08:32:49;43.70;51.60
45137;DHT22;30894;51.740;19.498;2022-07-22T08:35:15;43.90;50.60
45137;DHT22;30894;51.740;19.498;2022-07-22T08:37:42;43.90;50.50
45137;DHT22;30894;51.740;19.498;2022-07-22T08:40:11;43.80;50.70
45137;DHT22;30894;51.740;19.498;2022-07-22T08:42:39;43.60;50.80
45137;DHT22;30894;51.740;19.498;2022-07-22T08:45:06;43.60;50.90
45137;DHT22;30894;51.740;19.498;2022-07-22T08:47:33;43.70;50.80
45137;DHT22;30894;51.740;19.498;2022-07-22T08:50:00;43.30;51.00
45137;DHT22;30894;51.740;19.498;2022-07-22T08:52:26;43.30;51.10
45137;DHT22;30894;51.740;19.498;2022-07-22T08:54:52;43.30;51.10
45137;DHT22;30894;51.740;19.498;2022-07-22T08:57:20;43.60;51.10
45137;DHT22;30894;51.740;19.498;2022-07-22T08:59:55;44.20;50.70
45137;DHT22;30894;51.740;19.498;2022-07-22T09:02:24;45.10;50.00
45137;DHT22;30894;51.740;19.498;2022-07-22T09:05:00;45.80;50.20
45137;DHT22;30894;51.740;19.498;2022-07-22T09:07:40;46.40;48.90
45137;DHT22;30894;51.740;19.498;2022-07-22T09:10:09;46.90;48.60
45137;DHT22;30894;51.740;19.498;2022-07-22T09:12:54;47.10;48.30
45137;DHT22;30894;51.740;19.498;2022-07-22T09:15:30;47.10;48.30
45137;DHT22;30894;51.740;19.498;2022-07-22T09:17:58;47.30;48.20
45137;DHT22;30894;51.740;19.498;2022-07-22T09:20:25;47.80;47.90
45137;DHT22;30894;51.740;19.498;2022-07-22T09:22:52;48.40;47.70
45137;DHT22;30894;51.740;19.498;2022-07-22T09:25:30;48.70;47.40
45137;DHT22;30894;51.740;19.498;2022-07-22T09:30:34;47.90;47.50
45137;DHT22;30894;51.740;19.498;2022-07-22T09:33:14;47.40;47.80
45137;DHT22;30894;51.740;19.498;2022-07-22T09:35:43;47.60;47.90
45137;DHT22;30894;51.740;19.498;2022-07-22T09:38:11;47.40;47.90
45137;DHT22;30894;51.740;19.498;2022-07-22T09:40:40;47.30;47.90
45137;DHT22;30894;51.740;19.498;2022-07-22T09:43:10;47.60;47.70
45137;DHT22;30894;51.740;19.498;2022-07-22T09:45:50;48.20;47.40
45137;DHT22;30894;51.740;19.498;2022-07-22T09:48:23;48.90;46.90
45137;DHT22;30894;51.740;19.498;2022-07-22T09:50:52;49.70;47.20
45137;DHT22;30894;51.740;19.498;2022-07-22T09:53:20;49.40;46.30
45137;DHT22;30894;51.740;19.498;2022-07-22T09:55:49;48.50;46.70
45137;DHT22;30894;51.740;19.498;2022-07-22T09:58:15;48.20;47.20
45137;DHT22;30894;51.740;19.498;2022-07-22T10:00:42;48.70;47.00
45137;DHT22;30894;51.740;19.498;2022-07-22T10:03:17;49.40;46.50
45137;DHT22;30894;51.740;19.498;2022-07-22T10:05:47;49.70;46.20
45137;DHT22;30894;51.740;19.498;2022-07-22T10:08:13;49.60;46.20
45137;DHT22;30894;51.740;19.498;2022-07-22T10:10:40;49.20;46.50
45137;DHT22;30894;51.740;19.498;2022-07-22T10:13:07;48.20;47.00
45137;DHT22;30894;51.740;19.498;2022-07-22T10:15:35;47.20;47.40
45137;DHT22;30894;51.740;19.498;2022-07-22T10:18:04;46.40;48.10
45137;DHT22;30894;51.740;19.498;2022-07-22T10:20:34;46.10;48.50
45137;DHT22;30894;51.740;19.498;2022-07-22T10:23:03;46.00;48.50
45137;DHT22;30894;51.740;19.498;2022-07-22T10:25:33;46.00;48.30
45137;DHT22;30894;51.740;19.498;2022-07-22T10:28:34;46.40;48.00
45137;DHT22;30894;51.740;19.498;2022-07-22T10:31:24;47.00;47.50
45137;DHT22;30894;51.740;19.498;2022-07-22T10:33:55;47.80;47.00
45137;DHT22;30894;51.740;19.498;2022-07-22T10:36:42;47.60;46.50
45137;DHT22;30894;51.740;19.498;2022-07-22T10:39:10;48.30;46.50
45137;DHT22;30894;51.740;19.498;2022-07-22T10:41:41;49.00;46.00
45137;DHT22;30894;51.740;19.498;2022-07-22T10:44:11;49.60;45.50
45137;DHT22;30894;51.740;19.498;2022-07-22T10:46:49;49.40;45.40
45137;DHT22;30894;51.740;19.498;2022-07-22T10:49:23;48.90;45.60
45137;DHT22;30894;51.740;19.498;2022-07-22T10:52:09;49.20;45.60
45137;DHT22;30894;51.740;19.498;2022-07-22T10:55:20;49.40;45.30
45137;DHT22;30894;51.740;19.498;2022-07-22T10:57:47;48.70;45.80
45137;DHT22;30894;51.740;19.498;2022-07-22T11:00:15;49.10;45.60
45137;DHT22;30894;51.740;19.498;2022-07-22T11:02:41;49.60;45.30
45137;DHT22;30894;51.740;19.498;2022-07-22T11:05:08;49.60;44.90
45137;DHT22;30894;51.740;19.498;2022-07-22T11:07:45;48.80;45.00
45137;DHT22;30894;51.740;19.498;2022-07-22T11:10:17;48.70;45.20
45137;DHT22;30894;51.740;19.498;2022-07-22T11:12:45;48.50;45.00
45137;DHT22;30894;51.740;19.498;2022-07-22T11:15:12;48.20;45.20
45137;DHT22;30894;51.740;19.498;2022-07-22T11:17:38;47.90;45.40
45137;DHT22;30894;51.740;19.498;2022-07-22T11:20:08;47.70;45.30
45137;DHT22;30894;51.740;19.498;2022-07-22T11:22:37;47.30;45.60
45137;DHT22;30894;51.740;19.498;2022-07-22T11:25:06;47.80;45.50
45137;DHT22;30894;51.740;19.498;2022-07-22T11:27:34;47.70;45.40
45137;DHT22;30894;51.740;19.498;2022-07-22T11:30:00;47.40;45.60
45137;DHT22;30894;51.740;19.498;2022-07-22T11:32:29;46.80;46.10
45137;DHT22;30894;51.740;19.498;2022-07-22T11:34:58;46.20;46.20
45137;DHT22;30894;51.740;19.498;2022-07-22T11:37:26;45.70;46.40
45137;DHT22;30894;51.740;19.498;2022-07-22T11:40:08;45.10;46.70
45137;DHT22;30894;51.740;19.498;2022-07-22T11:42:35;45.00;46.80
45137;DHT22;30894;51.740;19.498;2022-07-22T11:45:02;45.80;46.50
45137;DHT22;30894;51.740;19.498;2022-07-22T11:47:29;47.10;45.80
45137;DHT22;30894;51.740;19.498;2022-07-22T11:49:56;47.50;45.10
45137;DHT22;30894;51.740;19.498;2022-07-22T11:52:21;47.30;45.10
45137;DHT22;30894;51.740;19.498;2022-07-22T11:54:47;46.70;45.50
45137;DHT22;30894;51.740;19.498;2022-07-22T11:57:16;46.00;45.80
45137;DHT22;30894;51.740;19.498;2022-07-22T11:59:42;44.90;46.20
45137;DHT22;30894;51.740;19.498;2022-07-22T12:02:08;43.70;46.90
45137;DHT22;30894;51.740;19.498;2022-07-22T12:04:37;42.80;47.60
45137;DHT22;30894;51.740;19.498;2022-07-22T12:07:04;42.20;48.30
45137;DHT22;30894;51.740;19.498;2022-07-22T12:09:33;41.70;48.20
45137;DHT22;30894;51.740;19.498;2022-07-22T12:12:01;41.10;48.60
45137;DHT22;30894;51.740;19.498;2022-07-22T12:14:29;40.50;48.90
45137;DHT22;30894;51.740;19.498;2022-07-22T12:17:08;40.10;49.20
45137;DHT22;30894;51.740;19.498;2022-07-22T12:19:39;39.80;49.20
45137;DHT22;30894;51.740;19.498;2022-07-22T12:22:07;39.70;49.40
45137;DHT22;30894;51.740;19.498;2022-07-22T12:24:40;39.50;49.40
45137;DHT22;30894;51.740;19.498;2022-07-22T12:27:08;39.30;49.40
45137;DHT22;30894;51.740;19.498;2022-07-22T12:29:44;39.20;49.50
45137;DHT22;30894;51.740;19.498;2022-07-22T12:35:05;39.70;48.90
45137;DHT22;30894;51.740;19.498;2022-07-22T12:37:41;40.00;48.70
45137;DHT22;30894;51.740;19.498;2022-07-22T12:40:10;40.10;48.50
45137;DHT22;30894;51.740;19.498;2022-07-22T12:42:41;40.50;48.30
45137;DHT22;30894;51.740;19.498;2022-07-22T12:45:18;41.90;47.50
45137;DHT22;30894;51.740;19.498;2022-07-22T12:53:25;44.90;45.10
45137;DHT22;30894;51.740;19.498;2022-07-22T12:55:58;45.50;44.80
45137;DHT22;30894;51.740;19.498;2022-07-22T12:58:28;45.70;44.50
45137;DHT22;30894;51.740;19.498;2022-07-22T13:01:00;45.40;44.50
45137;DHT22;30894;51.740;19.498;2022-07-22T13:03:27;45.30;44.60
45137;DHT22;30894;51.740;19.498;2022-07-22T13:06:00;45.00;44.90
45137;DHT22;30894;51.740;19.498;2022-07-22T13:08:29;44.10;45.30
45137;DHT22;30894;51.740;19.498;2022-07-22T13:10:55;43.90;45.50
45137;DHT22;30894;51.740;19.498;2022-07-22T13:13:22;43.50;45.80
45137;DHT22;30894;51.740;19.498;2022-07-22T13:15:50;42.50;46.20
45137;DHT22;30894;51.740;19.498;2022-07-22T13:18:17;41.70;46.80
45137;DHT22;30894;51.740;19.498;2022-07-22T13:20:43;41.40;47.20
45137;DHT22;30894;51.740;19.498;2022-07-22T13:23:10;42.50;47.00
45137;DHT22;30894;51.740;19.498;2022-07-22T13:25:36;44.10;46.10
45137;DHT22;30894;51.740;19.498;2022-07-22T13:28:02;45.60;45.20
45137;DHT22;30894;51.740;19.498;2022-07-22T13:30:29;46.50;44.40
45137;DHT22;30894;51.740;19.498;2022-07-22T13:32:56;47.10;44.00
45137;DHT22;30894;51.740;19.498;2022-07-22T13:35:22;47.30;43.70
45137;DHT22;30894;51.740;19.498;2022-07-22T13:37:48;47.00;43.70
45137;DHT22;30894;51.740;19.498;2022-07-22T13:40:15;46.40;43.80
45137;DHT22;30894;51.740;19.498;2022-07-22T13:42:41;46.40;44.10
45137;DHT22;30894;51.740;19.498;2022-07-22T13:45:08;46.10;44.20
45137;DHT22;30894;51.740;19.498;2022-07-22T13:47:36;46.10;44.30
45137;DHT22;30894;51.740;19.498;2022-07-22T13:50:02;45.90;44.30
45137;DHT22;30894;51.740;19.498;2022-07-22T13:52:30;45.70;44.60
45137;DHT22;30894;51.740;19.498;2022-07-22T13:54:56;45.80;44.60
45137;DHT22;30894;51.740;19.498;2022-07-22T13:57:22;46.00;44.50
45137;DHT22;30894;51.740;19.498;2022-07-22T13:59:48;46.20;44.40
45137;DHT22;30894;51.740;19.498;2022-07-22T14:02:14;46.20;44.30
45137;DHT22;30894;51.740;19.498;2022-07-22T14:04:40;45.90;44.20
45137;DHT22;30894;51.740;19.498;2022-07-22T14:07:06;45.50;44.30
45137;DHT22;30894;51.740;19.498;2022-07-22T14:09:32;45.10;44.50
45137;DHT22;30894;51.740;19.498;2022-07-22T14:11:58;44.80;44.60
45137;DHT22;30894;51.740;19.498;2022-07-22T14:14:25;44.60;44.70
45137;DHT22;30894;51.740;19.498;2022-07-22T14:16:51;44.40;44.80
45137;DHT22;30894;51.740;19.498;2022-07-22T14:19:17;44.70;44.90
45137;DHT22;30894;51.740;19.498;2022-07-22T14:21:44;45.00;44.60
45137;DHT22;30894;51.740;19.498;2022-07-22T14:24:11;45.20;44.40
45137;DHT22;30894;51.740;19.498;2022-07-22T14:26:38;45.20;44.30
45137;DHT22;30894;51.740;19.498;2022-07-22T14:29:05;44.90;44.30
45137;DHT22;30894;51.740;19.498;2022-07-22T14:31:32;44.70;44.40
45137;DHT22;30894;51.740;19.498;2022-07-22T14:33:58;44.40;44.50
45137;DHT22;30894;51.740;19.498;2022-07-22T14:36:24;44.10;44.50
45137;DHT22;30894;51.740;19.498;2022-07-22T14:38:50;43.10;44.90
45137;DHT22;30894;51.740;19.498;2022-07-22T14:41:17;42.90;45.40
45137;DHT22;30894;51.740;19.498;2022-07-22T14:43:43;43.00;45.30
45137;DHT22;30894;51.740;19.498;2022-07-22T14:46:09;43.20;45.30
45137;DHT22;30894;51.740;19.498;2022-07-22T14:48:39;43.30;45.10
45137;DHT22;30894;51.740;19.498;2022-07-22T14:51:06;43.10;45.10
45137;DHT22;30894;51.740;19.498;2022-07-22T14:53:32;43.10;45.00
45137;DHT22;30894;51.740;19.498;2022-07-22T14:55:59;43.20;45.00
45137;DHT22;30894;51.740;19.498;2022-07-22T14:58:25;42.80;45.80
45137;DHT22;30894;51.740;19.498;2022-07-22T15:00:52;42.50;45.40
45137;DHT22;30894;51.740;19.498;2022-07-22T15:03:18;42.30;45.70
45137;DHT22;30894;51.740;19.498;2022-07-22T15:05:44;42.60;45.60
45137;DHT22;30894;51.740;19.498;2022-07-22T15:08:10;43.00;45.40
45137;DHT22;30894;51.740;19.498;2022-07-22T15:10:36;43.00;45.10
45137;DHT22;30894;51.740;19.498;2022-07-22T15:13:03;42.50;45.30
45137;DHT22;30894;51.740;19.498;2022-07-22T15:15:29;42.00;45.70
45137;DHT22;30894;51.740;19.498;2022-07-22T15:17:55;41.10;46.00
45137;DHT22;30894;51.740;19.498;2022-07-22T15:20:21;40.40;46.50
45137;DHT22;30894;51.740;19.498;2022-07-22T15:22:47;39.80;46.90
45137;DHT22;30894;51.740;19.498;2022-07-22T15:25:13;39.40;47.10
45137;DHT22;30894;51.740;19.498;2022-07-22T15:27:39;39.50;47.30